Time;durP1;ratioP1;P1;durP2;ratioP2;P2;SDS_P1;SDS_P2;PMS_P1;PMS_P2;Temp;Humidity;BMP_temperature;BMP_pressure;BME280_temperature;BME280_humidity;BME280_pressure;Samples;Min_cycle;Max_cycle;Signal;HPM_P1;HPM_P2
2021/09/13 00:02:07;;;;;;;16.62;14.83;;;;;;;18.71;64.60;99513.09;1735252;82;21614;-71
2021/09/13 00:04:34;;;;;;;15.70;13.93;;;;;;;18.76;64.88;99519.79;1734999;82;21024;-71
2021/09/13 00:07:00;;;;;;;13.93;12.43;;;;;;;18.79;64.75;99512.38;1735080;82;21020;-76
2021/09/13 00:09:26;;;;;;;14.38;12.98;;;;;;;18.84;64.64;99512.82;1734829;82;21071;-75
2021/09/13 00:11:53;;;;;;;17.27;15.38;;;;;;;18.87;64.66;99512.19;1739290;82;21162;-73
2021/09/13 00:14:21;;;;;;;20.90;16.02;;;;;;;18.88;64.90;99511.08;1738232;82;21002;-75
2021/09/13 00:16:50;;;;;;;22.65;17.70;;;;;;;18.80;64.59;99508.52;1738235;82;20967;-71
2021/09/13 00:19:19;;;;;;;18.27;15.50;;;;;;;18.64;64.57;99508.64;1739611;82;21059;-72
2021/09/13 00:21:47;;;;;;;14.43;12.35;;;;;;;18.44;65.52;99503.61;1739600;82;20986;-69
2021/09/13 00:24:16;;;;;;;13.05;11.57;;;;;;;18.38;65.63;99504.27;1739400;82;21012;-73
2021/09/13 00:26:44;;;;;;;12.80;11.53;;;;;;;18.42;65.22;99507.99;1725079;82;21054;-81
2021/09/13 00:29:12;;;;;;;12.55;11.20;;;;;;;18.47;64.59;99496.98;1724292;82;21079;-72
2021/09/13 00:31:41;;;;;;;15.38;11.63;;;;;;;18.55;63.92;99494.14;1727162;82;20998;-71
2021/09/13 00:34:10;;;;;;;12.75;11.45;;;;;;;18.63;63.53;99502.94;1731442;82;21042;-71
2021/09/13 00:36:37;;;;;;;15.63;11.73;;;;;;;18.69;63.22;99502.53;1716765;82;21134;-72
2021/09/13 00:39:06;;;;;;;17.02;14.23;;;;;;;18.75;63.02;99499.69;1667063;85;21560;-72
2021/09/13 00:41:35;;;;;;;15.53;12.80;;;;;;;18.79;62.68;99502.84;1718233;82;21034;-75
2021/09/13 00:44:03;;;;;;;14.15;11.45;;;;;;;18.81;62.20;99497.07;1717914;83;20991;-71
2021/09/13 00:46:30;;;;;;;19.35;15.95;;;;;;;18.83;61.85;99497.58;1717680;83;21524;-72
2021/09/13 00:48:58;;;;;;;17.45;15.63;;;;;;;18.84;61.82;99492.38;1722141;82;21014;-69
2021/09/13 00:51:26;;;;;;;18.45;15.83;;;;;;;18.73;63.45;99493.17;1715793;82;20979;-74
2021/09/13 00:53:55;;;;;;;20.05;15.95;;;;;;;18.61;63.84;99485.53;1732021;82;20975;-72
2021/09/13 00:56:23;;;;;;;17.55;15.75;;;;;;;18.46;64.07;99494.59;1732173;82;20960;-72
2021/09/13 00:58:52;;;;;;;19.92;16.32;;;;;;;18.17;64.81;99486.78;1676285;85;21067;-70
2021/09/13 01:01:18;;;;;;;21.27;19.10;;;;;;;17.95;65.19;99487.48;1730791;82;21034;-73
2021/09/13 01:03:45;;;;;;;23.90;21.12;;;;;;;17.89;64.80;99490.05;1702898;84;20992;-73
2021/09/13 01:06:12;;;;;;;25.95;21.17;;;;;;;17.88;64.37;99491.73;1702632;84;21032;-75
2021/09/13 01:08:40;;;;;;;22.30;17.90;;;;;;;17.85;64.30;99489.86;1704486;82;20971;-71
2021/09/13 01:11:08;;;;;;;25.10;17.85;;;;;;;17.83;64.12;99490.73;1707164;82;20966;-69
2021/09/13 01:13:36;;;;;;;21.12;18.90;;;;;;;17.87;64.18;99492.29;1718878;82;20900;-70
2021/09/13 01:16:07;;;;;;;25.50;19.82;;;;;;;17.90;64.70;99494.95;1724324;82;20900;-69
2021/09/13 01:18:35;;;;;;;19.83;17.47;;;;;;;17.82;64.99;99496.47;1733305;82;21004;-69
2021/09/13 01:21:02;;;;;;;24.90;19.10;;;;;;;17.78;64.81;99494.91;1749978;80;21563;-70
2021/09/13 01:23:33;;;;;;;24.10;18.45;;;;;;;17.79;63.92;99488.34;1712295;83;20990;-70
2021/09/13 01:26:07;;;;;;;23.65;21.17;;;;;;;17.84;63.87;99488.23;1686013;84;21112;-70
2021/09/13 01:28:34;;;;;;;28.45;24.07;;;;;;;17.90;63.83;99490.86;1709483;83;21051;-71
2021/09/13 01:31:02;;;;;;;24.15;21.20;;;;;;;17.85;63.45;99488.50;1679800;83;21071;-70
2021/09/13 01:33:29;;;;;;;23.70;21.10;;;;;;;17.86;63.20;99482.51;1689851;84;21026;-71
2021/09/13 01:35:55;;;;;;;26.12;20.43;;;;;;;17.91;62.83;99487.04;1693207;83;21062;-69
2021/09/13 01:38:25;;;;;;;22.00;19.70;;;;;;;17.95;62.61;99486.68;1713998;83;21770;-71
2021/09/13 01:40:51;;;;;;;22.30;19.67;;;;;;;17.99;62.53;99480.33;1684521;83;20995;-71
2021/09/13 01:43:18;;;;;;;22.60;19.92;;;;;;;18.05;62.40;99489.20;1703667;83;20982;-71
2021/09/13 01:45:45;;;;;;;32.00;21.82;;;;;;;18.11;62.60;99486.62;1728218;83;21079;-72
2021/09/13 01:48:11;;;;;;;26.30;22.58;;;;;;;18.12;62.66;99486.33;1728167;83;21590;-70
2021/09/13 01:50:38;;;;;;;29.23;25.35;;;;;;;18.09;62.72;99490.20;1688521;84;21049;-70
2021/09/13 01:53:06;;;;;;;27.32;21.25;;;;;;;17.92;63.22;99485.94;1699627;84;20975;-71
2021/09/13 01:55:34;;;;;;;28.00;23.52;;;;;;;17.81;63.85;99488.86;1658523;85;20950;-69
2021/09/13 01:58:01;;;;;;;25.25;21.82;;;;;;;17.79;64.06;99493.78;1696158;83;21408;-71
2021/09/13 02:00:28;;;;;;;33.73;23.95;;;;;;;17.81;64.24;99490.77;1715227;83;21042;-71
2021/09/13 02:02:54;;;;;;;29.27;24.65;;;;;;;17.81;64.74;99490.77;1726444;83;21194;-72
2021/09/13 02:05:23;;;;;;;27.45;23.92;;;;;;;17.81;64.91;99494.30;1742003;82;20982;-71
2021/09/13 02:07:53;;;;;;;32.95;26.60;;;;;;;17.81;65.24;99494.30;1742234;82;20939;-69
2021/09/13 02:10:19;;;;;;;28.12;23.80;;;;;;;17.79;65.50;99499.22;1741895;82;21597;-71
2021/09/13 02:12:46;;;;;;;29.37;23.12;;;;;;;17.77;66.08;99490.58;1741790;82;20955;-71
2021/09/13 02:15:12;;;;;;;30.37;23.85;;;;;;;17.77;66.81;99492.48;1712262;83;21085;-70
2021/09/13 02:17:39;;;;;;;29.60;21.90;;;;;;;17.78;66.53;99495.47;1714267;83;21165;-75
2021/09/13 02:20:09;;;;;;;24.15;20.60;;;;;;;17.79;65.60;99484.27;1697327;83;21044;-70
2021/09/13 02:22:36;;;;;;;26.15;18.20;;;;;;;17.84;65.42;99489.60;1711970;83;21057;-70
2021/09/13 02:25:05;;;;;;;18.15;16.25;;;;;;;17.90;63.21;99485.42;1712178;83;20940;-69
2021/09/13 02:27:32;;;;;;;17.40;15.60;;;;;;;17.96;61.44;99485.58;1696451;83;21089;-70
2021/09/13 02:29:59;;;;;;;23.25;17.65;;;;;;;18.04;61.08;99486.22;1725636;83;21002;-71
2021/09/13 02:32:26;;;;;;;19.42;16.97;;;;;;;18.07;61.00;99485.08;1683503;85;20986;-70
2021/09/13 02:34:52;;;;;;;20.97;16.70;;;;;;;18.07;61.24;99489.16;1684197;85;20966;-71
2021/09/13 02:37:18;;;;;;;24.05;18.70;;;;;;;18.04;61.46;99485.67;1744140;82;21070;-70
2021/09/13 02:39:45;;;;;;;26.52;17.95;;;;;;;17.98;61.34;99492.34;1742925;82;21084;-69
2021/09/13 02:42:13;;;;;;;24.25;18.40;;;;;;;17.93;61.59;99495.17;1740410;82;21095;-69
2021/09/13 02:44:41;;;;;;;28.55;21.95;;;;;;;17.86;62.38;99494.75;1716781;82;20987;-70
2021/09/13 02:47:07;;;;;;;27.55;22.60;;;;;;;17.78;63.72;99498.19;1742717;82;21050;-70
2021/09/13 02:49:36;;;;;;;32.45;24.45;;;;;;;17.68;65.73;99501.09;1744415;82;21010;-70
2021/09/13 02:52:03;;;;;;;27.85;24.25;;;;;;;17.57;66.85;99498.27;1739675;82;20955;-70
2021/09/13 02:54:31;;;;;;;32.23;23.27;;;;;;;17.48;67.18;99504.16;1739829;82;21010;-69
2021/09/13 02:56:58;;;;;;;27.58;20.88;;;;;;;17.40;66.61;99496.15;1744154;82;20977;-70
2021/09/13 02:59:25;;;;;;;23.92;20.65;;;;;;;17.35;66.46;99497.05;1744439;82;20999;-69
2021/09/13 03:01:53;;;;;;;24.57;20.10;;;;;;;17.33;66.27;99505.23;1740007;82;21003;-69
2021/09/13 03:04:20;;;;;;;25.30;21.37;;;;;;;17.32;66.07;99495.45;1716679;82;21177;-71
2021/09/13 03:06:51;;;;;;;25.85;20.02;;;;;;;17.33;65.80;99497.88;1739847;82;20994;-71
2021/09/13 03:09:20;;;;;;;24.60;19.80;;;;;;;17.34;64.84;99495.42;1698088;83;21092;-70
2021/09/13 03:11:46;;;;;;;22.55;18.32;;;;;;;17.37;64.43;99496.17;1728384;83;21094;-70
2021/09/13 03:14:15;;;;;;;21.02;18.00;;;;;;;17.39;64.16;99493.17;1728864;83;20995;-70
2021/09/13 03:16:43;;;;;;;27.98;20.77;;;;;;;17.42;63.60;99497.45;1728784;83;20896;-71
2021/09/13 03:19:11;;;;;;;24.32;18.52;;;;;;;17.44;63.54;99499.88;1733339;82;21033;-69
2021/09/13 03:21:37;;;;;;;25.23;19.55;;;;;;;17.41;63.49;99498.55;1735587;82;21018;-69
2021/09/13 03:24:05;;;;;;;27.67;17.95;;;;;;;17.37;63.43;99494.82;1734984;82;21047;-70
2021/09/13 03:26:31;;;;;;;23.70;19.32;;;;;;;17.33;63.48;99498.44;1735611;82;20967;-70
2021/09/13 03:28:59;;;;;;;20.27;17.52;;;;;;;17.29;63.40;99496.06;1735314;82;21064;-71
2021/09/13 03:31:25;;;;;;;22.70;18.37;;;;;;;17.25;63.53;99496.41;1695080;83;21013;-70
2021/09/13 03:33:52;;;;;;;23.50;16.95;;;;;;;17.19;63.62;99501.12;1735892;82;20986;-70
2021/09/13 03:36:18;;;;;;;23.80;17.90;;;;;;;17.18;63.97;99501.41;1716257;82;20951;-70
2021/09/13 03:38:45;;;;;;;20.57;18.20;;;;;;;17.14;64.18;99494.41;1735935;82;21016;-71
2021/09/13 03:41:14;;;;;;;20.52;16.82;;;;;;;17.11;64.21;99500.45;1729266;82;21873;-70
2021/09/13 03:43:40;;;;;;;20.75;16.37;;;;;;;17.11;64.04;99508.61;1697690;83;21068;-71
2021/09/13 03:46:07;;;;;;;24.10;18.80;;;;;;;17.12;64.01;99503.41;1697997;83;21109;-69
2021/09/13 03:48:44;;;;;;;20.85;18.50;;;;;;;17.12;64.07;99504.77;1719124;82;21063;-73
2021/09/13 03:51:11;;;;;;;19.75;17.30;;;;;;;17.10;63.96;99501.55;1727142;82;21082;-70
2021/09/13 03:53:39;;;;;;;19.20;16.48;;;;;;;17.08;63.90;99502.94;1726112;82;21210;-70
2021/09/13 03:56:07;;;;;;;22.70;17.27;;;;;;;17.08;63.46;99501.58;1706408;83;20943;-69
2021/09/13 03:58:35;;;;;;;20.25;15.30;;;;;;;17.08;63.24;99498.31;1730746;82;21064;-74
2021/09/13 04:01:02;;;;;;;19.75;15.28;;;;;;;17.10;62.92;99496.66;1679274;84;21639;-71
2021/09/13 04:03:36;;;;;;;22.93;16.17;;;;;;;17.12;62.78;99501.27;1703354;84;21090;-69
2021/09/13 04:05:59;;;;;;;19.95;15.98;;;;;;;17.13;62.75;99500.14;1676657;85;22206;-70
2021/09/13 04:11:36;;;;;;;19.42;14.38;;;;;;;17.14;62.31;99500.39;1612937;87;21548;-72
2021/09/13 04:14:13;;;;;;;22.58;16.10;;;;;;;17.16;62.09;99496.84;1673725;85;21090;-71
2021/09/13 04:16:42;;;;;;;20.20;14.38;;;;;;;17.17;61.86;99501.95;1683076;82;21490;-72
2021/09/13 04:19:13;;;;;;;21.27;15.08;;;;;;;17.21;61.71;99495.40;1707085;83;21093;-70
2021/09/13 04:21:53;;;;;;;18.67;14.07;;;;;;;17.24;61.71;99498.31;1729537;82;21047;-71
2021/09/13 04:24:22;;;;;;;20.35;14.60;;;;;;;17.26;61.53;99501.56;1724650;82;21680;-70
2021/09/13 04:27:00;;;;;;;15.40;13.80;;;;;;;17.30;61.37;99503.13;1727848;82;20964;-70
2021/09/13 04:29:29;;;;;;;19.25;14.03;;;;;;;17.35;61.18;99503.84;1727281;82;21013;-76
2021/09/13 04:32:10;;;;;;;21.40;14.63;;;;;;;17.38;61.08;99503.78;1706589;83;21204;-70
2021/09/13 04:34:38;;;;;;;17.35;13.35;;;;;;;17.41;60.91;99504.53;1731787;81;21056;-70
2021/09/13 04:37:19;;;;;;;20.85;14.30;;;;;;;17.47;60.80;99506.61;1732054;82;21210;-69
2021/09/13 04:40:06;;;;;;;16.42;13.22;;;;;;;17.51;60.82;99503.55;1717368;83;21511;-70
2021/09/13 04:42:36;;;;;;;19.00;13.03;;;;;;;17.54;60.48;99507.05;1727682;82;21022;-69
2021/09/13 04:45:09;;;;;;;16.40;13.80;;;;;;;17.58;60.42;99508.86;1706766;82;21156;-70
2021/09/13 04:47:40;;;;;;;20.05;15.00;;;;;;;17.62;60.18;99505.02;1706798;83;21493;-75
2021/09/13 04:50:11;;;;;;;20.77;14.25;;;;;;;17.68;59.95;99504.63;1724360;83;21037;-71
2021/09/13 04:52:58;;;;;;;15.25;13.18;;;;;;;17.75;59.91;99508.29;1727411;82;21490;-70
2021/09/13 04:55:25;;;;;;;17.82;14.90;;;;;;;17.78;60.03;99501.72;1706337;83;21478;-71
2021/09/13 04:57:53;;;;;;;17.12;13.55;;;;;;;17.80;60.07;99500.84;1727222;83;20956;-72
2021/09/13 05:00:21;;;;;;;15.63;13.65;;;;;;;17.84;59.96;99496.41;1727077;83;21513;-70
2021/09/13 05:02:49;;;;;;;17.40;13.08;;;;;;;17.91;59.70;99497.37;1706444;83;20937;-70
2021/09/13 05:05:17;;;;;;;17.80;14.15;;;;;;;17.96;59.58;99488.30;1727472;83;20960;-71
2021/09/13 05:07:45;;;;;;;23.75;13.28;;;;;;;18.02;59.40;99493.90;1727376;82;21009;-71
2021/09/13 05:10:12;;;;;;;19.12;12.98;;;;;;;18.07;59.22;99487.80;1727283;83;21312;-70
2021/09/13 05:12:39;;;;;;;23.55;15.03;;;;;;;18.12;59.15;99490.97;1727812;83;20886;-72
2021/09/13 05:15:10;;;;;;;21.85;14.78;;;;;;;18.16;59.06;99486.52;1706883;83;21532;-70
2021/09/13 05:17:37;;;;;;;18.90;14.33;;;;;;;18.20;59.08;99499.22;1727354;83;21036;-70
2021/09/13 05:20:08;;;;;;;22.37;13.83;;;;;;;18.23;59.21;99497.79;1736794;82;20927;-73
2021/09/13 05:22:37;;;;;;;18.65;14.25;;;;;;;18.27;59.19;99494.15;1743883;82;21014;-70
2021/09/13 05:25:06;;;;;;;16.50;13.70;;;;;;;18.30;58.97;99486.75;1741864;82;20970;-70
2021/09/13 05:27:33;;;;;;;21.25;13.75;;;;;;;18.36;58.99;99488.81;1742289;82;20990;-73
2021/09/13 05:29:59;;;;;;;20.40;15.10;;;;;;;18.41;58.72;99485.17;1742091;82;21586;-72
2021/09/13 05:32:28;;;;;;;20.48;13.95;;;;;;;18.46;58.31;99485.06;1740736;82;21079;-71
2021/09/13 05:34:55;;;;;;;27.62;15.40;;;;;;;18.48;58.32;99485.55;1737715;82;21250;-71
2021/09/13 05:37:22;;;;;;;22.32;17.25;;;;;;;18.51;58.63;99484.37;1737731;82;20975;-70
2021/09/13 05:39:48;;;;;;;27.55;16.97;;;;;;;18.54;58.97;99485.16;1717427;83;21503;-76
2021/09/13 05:42:16;;;;;;;21.55;16.35;;;;;;;18.58;59.11;99482.63;1741856;82;21583;-70
2021/09/13 05:44:43;;;;;;;19.82;17.35;;;;;;;18.60;59.21;99479.86;1742097;82;21074;-71
2021/09/13 05:47:10;;;;;;;25.52;16.52;;;;;;;18.62;59.29;99481.70;1741785;82;21197;-70
2021/09/13 05:49:38;;;;;;;25.62;16.30;;;;;;;18.64;59.55;99478.67;1739492;82;21041;-70
2021/09/13 05:52:06;;;;;;;19.00;15.15;;;;;;;18.68;59.84;99483.20;1713270;83;21559;-72
2021/09/13 05:54:37;;;;;;;18.62;14.00;;;;;;;18.68;59.78;99481.84;1683238;85;21026;-71
2021/09/13 05:57:05;;;;;;;28.27;17.17;;;;;;;18.72;59.99;99479.30;1714574;83;21091;-69
2021/09/13 05:59:37;;;;;;;21.33;16.27;;;;;;;18.75;60.16;99485.51;1716277;82;21555;-69
2021/09/13 06:02:06;;;;;;;15.53;13.13;;;;;;;18.80;60.41;99484.58;1737250;81;21520;-70
2021/09/13 06:04:33;;;;;;;17.73;13.58;;;;;;;18.84;60.48;99493.19;1741881;82;21007;-71
2021/09/13 06:07:04;;;;;;;17.10;13.58;;;;;;;18.87;60.61;99488.47;1742280;82;21107;-71
2021/09/13 06:09:32;;;;;;;23.18;15.15;;;;;;;18.93;60.78;99494.06;1718540;82;21006;-72
2021/09/13 06:12:01;;;;;;;20.70;15.13;;;;;;;18.97;61.04;99486.87;1742054;81;21142;-70
2021/09/13 06:14:31;;;;;;;20.23;15.08;;;;;;;19.02;61.20;99486.74;1742012;82;21010;-84
2021/09/13 06:16:59;;;;;;;18.73;13.70;;;;;;;19.08;61.06;99488.23;1742127;82;21025;-73
2021/09/13 06:19:26;;;;;;;18.62;13.60;;;;;;;19.13;60.98;99485.94;1734948;82;21083;-70
2021/09/13 06:21:53;;;;;;;17.62;13.30;;;;;;;19.18;60.99;99478.41;1719272;82;21067;-70
2021/09/13 06:24:22;;;;;;;21.40;13.95;;;;;;;19.25;60.88;99486.72;1718828;82;20996;-71
2021/09/13 06:26:48;;;;;;;18.75;15.30;;;;;;;19.33;60.48;99484.63;1721567;82;21022;-70
2021/09/13 06:29:15;;;;;;;18.35;15.00;;;;;;;19.40;60.35;99490.42;1698927;84;21011;-71
2021/09/13 06:31:43;;;;;;;25.50;14.40;;;;;;;19.46;60.35;99485.11;1725156;83;21551;-71
2021/09/13 06:34:15;;;;;;;21.05;13.55;;;;;;;19.53;60.36;99489.55;1706262;83;21047;-71
2021/09/13 06:36:38;;;;;;;16.77;14.78;;;;;;;19.59;60.20;99491.03;1706359;83;21210;-69
2021/09/13 06:39:05;;;;;;;24.98;14.07;;;;;;;19.69;59.96;99492.67;1725305;83;21029;-70
2021/09/13 06:41:31;;;;;;;22.55;14.40;;;;;;;19.75;59.89;99490.06;1725444;83;20998;-69
2021/09/13 06:43:58;;;;;;;17.05;14.00;;;;;;;19.83;59.81;99496.10;1720101;82;21079;-69
2021/09/13 06:46:33;;;;;;;19.95;13.55;;;;;;;19.92;59.60;99494.20;1720665;82;21031;-69
2021/09/13 06:48:54;;;;;;;17.20;13.80;;;;;;;19.99;59.39;99492.64;1732274;82;21167;-71
2021/09/13 06:51:20;;;;;;;17.25;11.40;;;;;;;20.09;58.99;99497.56;1725526;82;21130;-72
2021/09/13 06:53:46;;;;;;;18.52;13.28;;;;;;;20.16;58.55;99494.59;1730579;82;21014;-71
2021/09/13 06:56:13;;;;;;;19.77;11.55;;;;;;;20.25;58.29;99490.52;1732031;82;20955;-70
2021/09/13 06:58:39;;;;;;;14.93;11.97;;;;;;;20.33;58.05;99496.61;1678755;85;21046;-72
2021/09/13 07:01:06;;;;;;;14.05;11.63;;;;;;;20.43;57.69;99499.03;1705185;84;21199;-73
2021/09/13 07:03:32;;;;;;;16.02;11.22;;;;;;;20.51;56.82;99497.42;1703255;84;21594;-72
2021/09/13 07:05:59;;;;;;;12.30;11.05;;;;;;;20.60;56.69;99492.77;1713974;82;21095;-70
2021/09/13 07:08:25;;;;;;;18.23;11.00;;;;;;;20.69;56.63;99497.11;1718682;82;21349;-72
2021/09/13 07:10:52;;;;;;;21.75;11.40;;;;;;;20.76;56.44;99498.02;1724499;82;21575;-72
2021/09/13 07:13:18;;;;;;;17.55;11.45;;;;;;;20.84;56.13;99494.46;1732448;82;21217;-71
2021/09/13 07:15:46;;;;;;;15.32;10.48;;;;;;;20.95;55.79;99491.65;1732334;82;22148;-70
2021/09/13 07:18:14;;;;;;;15.30;10.58;;;;;;;21.04;55.35;99497.91;1731969;82;21078;-70
2021/09/13 07:20:42;;;;;;;15.32;11.33;;;;;;;21.24;54.42;99500.01;1724505;82;21023;-71
2021/09/13 07:23:09;;;;;;;13.43;11.90;;;;;;;21.24;54.42;99500.01;1700252;83;21492;-73
2021/09/13 07:25:35;;;;;;;29.80;11.18;;;;;;;21.34;54.23;99502.16;1718901;83;21110;-71
2021/09/13 07:28:03;;;;;;;13.85;10.25;;;;;;;21.51;53.69;99498.80;1713684;83;21179;-71
2021/09/13 07:30:29;;;;;;;19.77;11.12;;;;;;;21.61;52.91;99497.64;1719199;83;21053;-73
2021/09/13 07:32:57;;;;;;;13.60;10.40;;;;;;;21.61;52.91;99497.64;1678506;83;21070;-73
2021/09/13 07:35:23;;;;;;;17.50;11.25;;;;;;;21.73;52.68;99505.95;1705202;83;21084;-72
2021/09/13 07:37:50;;;;;;;17.62;12.07;;;;;;;21.83;52.27;99506.97;1725778;83;21103;-73
2021/09/13 07:40:16;;;;;;;14.03;10.80;;;;;;;21.92;51.30;99508.33;1722772;83;20932;-74
2021/09/13 07:42:42;;;;;;;16.52;11.35;;;;;;;22.01;50.42;99507.19;1719025;83;21509;-73
2021/09/13 07:45:10;;;;;;;12.88;10.43;;;;;;;22.10;50.10;99515.35;1699985;83;20956;-74
2021/09/13 07:47:36;;;;;;;13.45;10.03;;;;;;;22.16;49.55;99505.22;1700591;83;21076;-73
2021/09/13 07:50:05;;;;;;;11.50;9.48;;;;;;;22.24;49.52;99513.17;1709242;83;21187;-73
2021/09/13 07:52:33;;;;;;;12.13;10.00;;;;;;;22.29;49.35;99511.61;1726103;83;20987;-73
2021/09/13 07:55:00;;;;;;;15.48;10.08;;;;;;;22.34;49.42;99507.88;1725755;83;21495;-74
2021/09/13 07:57:26;;;;;;;18.00;10.95;;;;;;;22.38;49.75;99512.36;1711854;83;21583;-72
2021/09/13 07:59:53;;;;;;;12.65;10.35;;;;;;;22.45;49.76;99509.08;1704968;83;21553;-73
2021/09/13 08:02:19;;;;;;;12.85;10.35;;;;;;;22.51;49.64;99508.56;1724360;83;21049;-72
2021/09/13 08:04:46;;;;;;;16.12;10.03;;;;;;;22.58;49.52;99514.33;1713143;83;20999;-71
2021/09/13 08:07:13;;;;;;;16.35;9.48;;;;;;;22.64;49.29;99506.68;1714127;83;20992;-76
2021/09/13 08:09:41;;;;;;;17.95;10.68;;;;;;;22.71;49.43;99507.56;1654698;86;21110;-73
2021/09/13 08:12:08;;;;;;;16.05;9.80;;;;;;;22.78;49.69;99503.73;1654567;86;21050;-74
2021/09/13 08:14:38;;;;;;;14.43;10.23;;;;;;;22.87;49.36;99504.45;1654621;86;21239;-71
2021/09/13 08:17:06;;;;;;;19.57;11.10;;;;;;;22.94;49.00;99502.77;1721456;83;21233;-74
2021/09/13 08:19:33;;;;;;;11.33;9.20;;;;;;;23.01;49.03;99504.41;1721762;82;21010;-73
2021/09/13 08:22:01;;;;;;;14.75;10.55;;;;;;;23.08;48.59;99495.61;1744218;82;20999;-73
2021/09/13 08:24:27;;;;;;;15.10;10.72;;;;;;;23.16;48.21;99494.75;1716502;82;21011;-72
2021/09/13 08:26:56;;;;;;;20.10;11.55;;;;;;;23.23;48.13;99493.61;1715051;82;21317;-71
2021/09/13 08:29:23;;;;;;;17.77;11.22;;;;;;;23.31;48.28;99494.69;1735835;82;21091;-71
2021/09/13 08:31:51;;;;;;;17.90;11.08;;;;;;;23.35;47.81;99489.55;1710903;82;20990;-73
2021/09/13 08:34:18;;;;;;;13.68;11.25;;;;;;;23.40;47.85;99485.18;1735081;82;20964;-74
2021/09/13 08:36:47;;;;;;;13.98;9.28;;;;;;;23.44;47.47;99487.53;1739626;82;21569;-77
2021/09/13 08:39:14;;;;;;;13.58;9.75;;;;;;;23.51;47.37;99488.90;1739742;82;21015;-71
2021/09/13 08:41:42;;;;;;;16.42;10.00;;;;;;;23.58;47.20;99483.09;1734707;82;21008;-72
2021/09/13 08:44:12;;;;;;;19.80;10.98;;;;;;;23.66;47.23;99489.05;1684956;83;20996;-76
2021/09/13 08:46:48;;;;;;;13.43;10.20;;;;;;;23.73;46.93;99481.63;1716660;83;21505;-73
2021/09/13 08:49:25;;;;;;;12.85;9.95;;;;;;;23.81;46.18;99488.95;1697858;83;21558;-74
2021/09/13 08:51:40;;;;;;;13.40;9.33;;;;;;;23.89;46.12;99484.70;1708491;83;21839;-72
2021/09/13 08:54:10;;;;;;;13.62;10.70;;;;;;;23.95;46.08;99485.86;1682440;85;21537;-72
2021/09/13 08:59:06;;;;;;;16.73;10.68;;;;;;;24.02;45.78;99484.72;1663382;85;21047;-74
2021/09/13 09:01:33;;;;;;;13.70;10.93;;;;;;;24.07;45.63;99485.87;1681382;83;21532;-71
2021/09/13 09:04:00;;;;;;;16.17;9.23;;;;;;;24.08;45.49;99481.38;1720431;83;21029;-69
2021/09/13 09:06:34;;;;;;;17.00;11.53;;;;;;;24.12;45.21;99482.89;1706505;83;21075;-71
2021/09/13 09:09:09;;;;;;;13.70;10.40;;;;;;;24.18;44.50;99486.45;1717113;83;21010;-71
2021/09/13 09:12:13;;;;;;;17.75;8.83;;;;;;;24.23;44.27;99486.78;1723937;82;21046;-73
2021/09/13 09:14:48;;;;;;;12.28;8.85;;;;;;;24.28;44.26;99498.92;1710260;83;26578;-72
2021/09/13 09:17:25;;;;;;;10.05;8.30;;;;;;;24.32;43.35;99486.89;1715315;83;21836;-73
2021/09/13 09:20:11;;;;;;;17.62;9.63;;;;;;;24.35;43.85;99473.61;1702745;83;21139;-72
2021/09/13 09:22:42;;;;;;;16.82;10.00;;;;;;;24.41;43.56;99476.36;1719741;83;21538;-72
2021/09/13 09:25:10;;;;;;;21.00;10.85;;;;;;;24.51;43.52;99478.03;1715578;83;21067;-75
2021/09/13 09:28:00;;;;;;;12.03;9.68;;;;;;;24.62;43.41;99475.59;1719121;83;21118;-70
2021/09/13 09:30:45;;;;;;;11.63;10.10;;;;;;;24.69;42.70;99490.95;1726571;83;21158;-75
2021/09/13 09:33:15;;;;;;;15.08;10.28;;;;;;;24.71;42.67;99474.31;1722862;83;21027;-75
2021/09/13 09:35:56;;;;;;;14.05;9.15;;;;;;;24.71;42.64;99473.50;1721022;83;21544;-71
2021/09/13 09:38:41;;;;;;;15.93;11.35;;;;;;;24.75;42.77;99469.70;1702984;83;21895;-75
2021/09/13 09:41:13;;;;;;;16.40;9.13;;;;;;;24.79;42.04;99469.83;1742301;82;21041;-72
2021/09/13 09:43:56;;;;;;;13.70;8.93;;;;;;;24.85;40.82;99477.23;1705906;82;21069;-73
2021/09/13 09:46:24;;;;;;;11.78;9.35;;;;;;;24.87;40.42;99468.91;1733904;82;21616;-72
2021/09/13 09:49:03;;;;;;;10.50;9.08;;;;;;;24.89;40.55;99475.44;1742011;82;21133;-72
2021/09/13 09:51:37;;;;;;;15.05;9.73;;;;;;;24.91;40.74;99464.87;1739076;82;21131;-72
2021/09/13 09:54:13;;;;;;;14.80;10.28;;;;;;;24.94;40.88;99467.71;1740693;81;21058;-73
2021/09/13 09:56:42;;;;;;;10.63;8.83;;;;;;;24.97;40.90;99461.53;1739064;82;21107;-75
2021/09/13 09:59:10;;;;;;;20.75;13.18;;;;;;;25.01;41.02;99469.88;1742965;81;21704;-72
2021/09/13 10:01:48;;;;;;;10.95;9.83;;;;;;;25.03;41.01;99471.71;1739692;82;21037;-74
2021/09/13 10:04:26;;;;;;;14.47;9.98;;;;;;;24.99;40.88;99464.70;1741388;82;21508;-74
2021/09/13 10:06:57;;;;;;;13.78;12.35;;;;;;;25.02;40.80;99459.09;1718485;82;21039;-72
2021/09/13 10:09:27;;;;;;;13.93;9.43;;;;;;;25.07;40.70;99456.09;1741799;82;21452;-70
2021/09/13 10:11:56;;;;;;;12.15;10.25;;;;;;;25.05;40.54;99453.68;1742757;82;20990;-71
2021/09/13 10:14:26;;;;;;;13.95;9.25;;;;;;;25.08;39.98;99454.95;1728561;82;21015;-77
2021/09/13 10:16:55;;;;;;;13.15;9.85;;;;;;;25.14;39.42;99454.89;1740636;81;20976;-76
2021/09/13 10:19:23;;;;;;;15.48;11.65;;;;;;;25.19;39.85;99451.88;1713013;82;21555;-74
2021/09/13 10:21:50;;;;;;;14.20;9.88;;;;;;;25.26;40.19;99461.72;1713506;82;21011;-73
2021/09/13 10:24:36;;;;;;;11.60;9.75;;;;;;;25.31;40.12;99467.55;1742520;81;20991;-76
2021/09/13 10:27:04;;;;;;;13.18;9.75;;;;;;;25.35;39.89;99451.91;1738763;82;21106;-76
2021/09/13 10:29:31;;;;;;;13.10;9.65;;;;;;;25.43;39.79;99452.31;1741857;82;21006;-81
2021/09/13 10:32:06;;;;;;;14.58;8.95;;;;;;;25.49;39.87;99444.02;1709259;82;21579;-73
2021/09/13 10:34:44;;;;;;;12.40;9.25;;;;;;;25.53;39.90;99454.54;1711254;82;21046;-74
2021/09/13 10:37:15;;;;;;;11.83;9.48;;;;;;;25.55;39.64;99455.03;1701028;82;21075;-75
2021/09/13 10:40:06;;;;;;;10.10;8.53;;;;;;;25.58;39.70;99444.67;1742506;82;21073;-81
2021/09/13 10:42:39;;;;;;;12.50;9.25;;;;;;;25.63;39.58;99434.76;1742074;81;21513;-77
2021/09/13 10:45:41;;;;;;;11.55;9.18;;;;;;;25.76;39.43;99434.08;1743369;81;21460;-72
2021/09/13 10:48:11;;;;;;;10.78;9.43;;;;;;;25.86;39.32;99448.11;1741246;81;22055;-76
2021/09/13 10:50:51;;;;;;;12.07;9.80;;;;;;;25.93;39.00;99435.09;1714613;81;21071;-76
2021/09/13 10:53:27;;;;;;;16.57;11.08;;;;;;;25.86;39.06;99430.77;1714641;81;22010;-78
2021/09/13 10:56:05;;;;;;;12.68;9.95;;;;;;;25.92;39.05;99430.73;1743559;81;21027;-70
2021/09/13 10:58:50;;;;;;;10.15;8.68;;;;;;;26.03;38.52;99427.66;1742613;81;21060;-75
2021/09/13 11:01:23;;;;;;;12.60;8.90;;;;;;;26.15;38.26;99415.11;1714650;82;21173;-76
2021/09/13 11:03:53;;;;;;;17.20;9.78;;;;;;;26.28;38.08;99425.48;1697692;83;21080;-73
2021/09/13 11:06:28;;;;;;;12.05;9.78;;;;;;;26.37;38.15;99416.42;1712046;83;21015;-70
2021/09/13 11:08:59;;;;;;;16.55;10.18;;;;;;;26.45;37.91;99412.64;1705652;83;21075;-71
2021/09/13 11:11:34;;;;;;;11.97;9.58;;;;;;;26.52;37.96;99414.77;1724315;83;21046;-72
2021/09/13 11:14:19;;;;;;;13.45;10.28;;;;;;;26.61;37.96;99411.20;1712956;83;21083;-70
2021/09/13 11:16:57;;;;;;;11.68;10.30;;;;;;;26.69;37.84;99409.59;1699313;84;21014;-70
2021/09/13 11:19:26;;;;;;;14.25;10.85;;;;;;;26.70;37.79;99411.20;1720264;83;21498;-73
2021/09/13 11:21:57;;;;;;;17.60;9.68;;;;;;;26.79;37.75;99403.49;1733131;82;21535;-69
2021/09/13 11:24:34;;;;;;;16.57;10.48;;;;;;;26.88;37.68;99393.63;1734481;82;21105;-77
2021/09/13 11:27:09;;;;;;;15.13;11.03;;;;;;;26.98;37.75;99391.66;1714378;82;20997;-77
2021/09/13 11:29:39;;;;;;;15.32;10.70;;;;;;;27.13;37.64;99396.27;1737461;82;20990;-76
2021/09/13 11:32:11;;;;;;;12.78;9.78;;;;;;;27.24;37.62;99390.95;1702144;82;20987;-78
2021/09/13 11:34:46;;;;;;;14.28;10.72;;;;;;;27.38;37.46;99403.62;1736796;82;20955;-71
2021/09/13 11:37:23;;;;;;;15.40;11.00;;;;;;;27.49;37.11;99410.71;1736300;82;20940;-74